createdAt,value
2019-03-30T15:52:55.307Z,100866.59
2019-03-30T15:55:26.580Z,100870.59
2019-03-30T15:57:57.925Z,100871.04
2019-03-30T16:00:29.124Z,100871.04
2019-03-30T16:03:00.475Z,100874.36
2019-03-30T16:05:31.763Z,100875.53
2019-03-30T16:08:04.753Z,100882.73
2019-03-30T16:10:35.850Z,100879.48
2019-03-30T16:13:07.177Z,100887.98
2019-03-30T16:15:38.377Z,100884.30
2019-03-30T16:18:09.709Z,100893.84
2019-03-30T16:20:40.957Z,100896.68
2019-03-30T16:23:12.218Z,100899.09
2019-03-30T16:25:45.874Z,100899.19
2019-03-30T16:28:17.126Z,100897.89
2019-03-30T16:30:49.671Z,100895.11
2019-03-30T16:33:20.909Z,100902.16
2019-03-30T16:35:52.313Z,100907.96
2019-03-30T16:38:23.649Z,100911.64
2019-03-30T16:40:54.998Z,100908.23
2019-03-30T16:43:26.259Z,100915.41
2019-03-30T16:45:58.949Z,100921.42
2019-03-30T16:48:30.320Z,100921.31
2019-03-30T16:51:01.539Z,100925.31
2019-03-30T16:53:32.776Z,100927.83
2019-03-30T16:56:04.459Z,100941.91
2019-03-30T16:58:35.793Z,100935.53
2019-03-30T17:01:08.524Z,100939.09
2019-03-30T17:03:40.502Z,100941.59
2019-03-30T17:06:11.771Z,100946.16
2019-03-30T17:08:42.982Z,100940.63
2019-03-30T17:11:14.326Z,100940.01
2019-03-30T17:13:45.667Z,100939.86
2019-03-30T17:16:18.010Z,100936.45
2019-03-30T17:18:49.373Z,100937.95
2019-03-30T17:21:20.709Z,100945.14
2019-03-30T17:23:52.147Z,100945.94
2019-03-30T17:26:23.579Z,100945.81
2019-03-30T17:28:57.279Z,100945.79
2019-03-30T17:31:30.082Z,100944.41
2019-03-30T17:34:01.257Z,100957.62
2019-03-30T17:36:33.561Z,100962.73
2019-03-30T17:39:07.288Z,100958.15
2019-03-30T17:41:38.575Z,100963.90
2019-03-30T17:44:11.333Z,100966.88
2019-03-30T17:46:42.707Z,100969.53
2019-03-30T17:49:14.977Z,100970.81
2019-03-30T17:51:48.009Z,100977.30
2019-03-30T17:54:20.897Z,100977.94
2019-03-30T17:56:52.172Z,100981.23
2019-03-30T17:59:23.936Z,100985.66
2019-03-30T18:01:55.263Z,100981.55
2019-03-30T18:04:26.519Z,100979.77
2019-03-30T18:06:57.728Z,100979.77
2019-03-30T18:09:29.148Z,100982.26
2019-03-30T18:12:00.523Z,100984.88
2019-03-30T18:14:31.896Z,100984.48
2019-03-30T18:17:03.241Z,100987.25
2019-03-30T18:19:34.529Z,100983.16
2019-03-30T18:22:05.827Z,100988.36
2019-03-30T18:24:37.239Z,100983.75
2019-03-30T18:27:09.539Z,100986.67
2019-03-30T18:29:44.196Z,100996.50
2019-03-30T18:32:15.523Z,100995.20
2019-03-30T18:34:46.763Z,100998.75
2019-03-30T18:37:18.110Z,101002.04
2019-03-30T18:39:49.419Z,101004.72
2019-03-30T18:42:20.840Z,101006.73
2019-03-30T18:44:54.300Z,101007.62
2019-03-30T18:47:25.630Z,101010.63
2019-03-30T18:49:56.946Z,101012.32
2019-03-30T18:52:28.286Z,101017.97
2019-03-30T18:54:59.664Z,101021.03
2019-03-30T18:57:32.921Z,101020.00
2019-03-30T19:00:07.354Z,101017.63
2019-03-30T19:02:39.498Z,101016.08
2019-03-30T19:05:10.907Z,101016.17
2019-03-30T19:07:43.726Z,101009.64
2019-03-30T19:10:15.628Z,101012.25
2019-03-30T19:12:47.008Z,101016.08
2019-03-30T19:15:18.264Z,101020.89
2019-03-30T19:17:49.536Z,101026.20
2019-03-30T19:20:21.730Z,101023.66
2019-03-30T19:22:53.070Z,101028.00
2019-03-30T19:25:24.430Z,101026.61
2019-03-30T19:27:55.774Z,101027.37
2019-03-30T19:30:27.069Z,101032.59
2019-03-30T19:32:58.324Z,101035.25
2019-03-30T19:35:30.935Z,101032.37
2019-03-30T19:38:03.907Z,101033.02
2019-03-30T19:40:35.309Z,101037.17
2019-03-30T19:43:06.486Z,101038.21
2019-03-30T19:45:37.760Z,101037.08
2019-03-30T19:48:09.119Z,101035.88
2019-03-30T19:50:40.399Z,101038.17
2019-03-30T19:53:13.465Z,101039.56
2019-03-30T19:55:44.905Z,101048.77
2019-03-30T19:58:16.331Z,101042.70
2019-03-30T20:00:47.727Z,101048.82
2019-03-30T20:03:20.153Z,101045.40
2019-03-30T20:05:51.520Z,101046.66
2019-03-30T20:08:22.971Z,101045.77
2019-03-30T20:10:54.353Z,101050.58
2019-03-30T20:13:25.858Z,101051.06
